sensor_id;sensor_type;location;lat;lon;timestamp;temperature;humidity
21722;DHT22;11023;48.274;7.794;2024-01-30T00:01:22;3.00;99.90
21722;DHT22;11023;48.274;7.794;2024-01-30T00:03:48;3.10;99.90
21722;DHT22;11023;48.274;7.794;2024-01-30T00:06:14;3.00;99.90
21722;DHT22;11023;48.274;7.794;2024-01-30T00:08:39;3.00;99.90
21722;DHT22;11023;48.274;7.794;2024-01-30T00:11:05;3.00;99.90
21722;DHT22;11023;48.274;7.794;2024-01-30T00:13:32;2.90;99.90
21722;DHT22;11023;48.274;7.794;2024-01-30T00:15:59;2.90;99.90
21722;DHT22;11023;48.274;7.794;2024-01-30T00:18:25;2.80;99.90
21722;DHT22;11023;48.274;7.794;2024-01-30T00:20:51;2.80;99.90
21722;DHT22;11023;48.274;7.794;2024-01-30T00:23:17;2.80;99.90
21722;DHT22;11023;48.274;7.794;2024-01-30T00:25:43;2.80;99.90
21722;DHT22;11023;48.274;7.794;2024-01-30T00:28:09;2.80;99.90
21722;DHT22;11023;48.274;7.794;2024-01-30T00:30:34;2.90;99.90
21722;DHT22;11023;48.274;7.794;2024-01-30T00:33:00;2.90;99.90
21722;DHT22;11023;48.274;7.794;2024-01-30T00:35:26;2.80;99.90
21722;DHT22;11023;48.274;7.794;2024-01-30T00:37:52;2.80;99.90
21722;DHT22;11023;48.274;7.794;2024-01-30T00:40:18;2.80;99.90
21722;DHT22;11023;48.274;7.794;2024-01-30T00:42:43;2.70;99.90
21722;DHT22;11023;48.274;7.794;2024-01-30T00:45:14;2.70;99.90
21722;DHT22;11023;48.274;7.794;2024-01-30T00:47:39;2.70;99.90
21722;DHT22;11023;48.274;7.794;2024-01-30T00:50:06;2.60;99.90
21722;DHT22;11023;48.274;7.794;2024-01-30T00:52:31;2.60;99.90
21722;DHT22;11023;48.274;7.794;2024-01-30T00:55:02;2.60;99.90
21722;DHT22;11023;48.274;7.794;2024-01-30T00:57:28;2.60;99.90
21722;DHT22;11023;48.274;7.794;2024-01-30T00:59:55;2.60;99.90
21722;DHT22;11023;48.274;7.794;2024-01-30T01:02:21;2.60;99.90
21722;DHT22;11023;48.274;7.794;2024-01-30T01:04:47;2.60;99.90
21722;DHT22;11023;48.274;7.794;2024-01-30T01:07:12;2.50;99.90
21722;DHT22;11023;48.274;7.794;2024-01-30T01:09:38;2.50;99.90
21722;DHT22;11023;48.274;7.794;2024-01-30T01:12:04;2.50;99.90
21722;DHT22;11023;48.274;7.794;2024-01-30T01:14:30;2.50;99.90
21722;DHT22;11023;48.274;7.794;2024-01-30T01:16:59;2.50;99.90
21722;DHT22;11023;48.274;7.794;2024-01-30T01:19:24;2.50;99.90
21722;DHT22;11023;48.274;7.794;2024-01-30T01:21:50;2.50;99.90
21722;DHT22;11023;48.274;7.794;2024-01-30T01:24:15;2.50;99.90
21722;DHT22;11023;48.274;7.794;2024-01-30T01:26:41;2.50;99.90
21722;DHT22;11023;48.274;7.794;2024-01-30T01:29:07;2.50;99.90
21722;DHT22;11023;48.274;7.794;2024-01-30T01:31:38;2.60;99.90
21722;DHT22;11023;48.274;7.794;2024-01-30T01:34:11;2.60;99.90
21722;DHT22;11023;48.274;7.794;2024-01-30T01:36:37;2.50;99.90
21722;DHT22;11023;48.274;7.794;2024-01-30T01:39:03;2.50;99.90
21722;DHT22;11023;48.274;7.794;2024-01-30T01:41:33;2.60;99.90
21722;DHT22;11023;48.274;7.794;2024-01-30T01:43:59;2.60;99.90
21722;DHT22;11023;48.274;7.794;2024-01-30T01:46:33;2.50;99.90
21722;DHT22;11023;48.274;7.794;2024-01-30T01:49:02;2.60;99.90
21722;DHT22;11023;48.274;7.794;2024-01-30T01:51:28;2.60;99.90
21722;DHT22;11023;48.274;7.794;2024-01-30T01:53:56;2.60;99.90
21722;DHT22;11023;48.274;7.794;2024-01-30T01:56:26;2.50;99.90
21722;DHT22;11023;48.274;7.794;2024-01-30T01:58:54;2.60;99.90
21722;DHT22;11023;48.274;7.794;2024-01-30T02:01:21;2.50;99.90
21722;DHT22;11023;48.274;7.794;2024-01-30T02:03:47;2.60;99.90
21722;DHT22;11023;48.274;7.794;2024-01-30T02:06:16;2.60;99.90
21722;DHT22;11023;48.274;7.794;2024-01-30T02:08:43;2.60;99.90
21722;DHT22;11023;48.274;7.794;2024-01-30T02:11:08;2.60;99.90
21722;DHT22;11023;48.274;7.794;2024-01-30T02:13:36;2.70;99.90
21722;DHT22;11023;48.274;7.794;2024-01-30T02:16:02;2.70;99.90
21722;DHT22;11023;48.274;7.794;2024-01-30T02:18:27;2.70;99.90
21722;DHT22;11023;48.274;7.794;2024-01-30T02:20:54;2.70;99.90
21722;DHT22;11023;48.274;7.794;2024-01-30T02:23:23;2.70;99.90
21722;DHT22;11023;48.274;7.794;2024-01-30T02:25:50;2.60;99.90
21722;DHT22;11023;48.274;7.794;2024-01-30T02:28:19;2.60;99.90
21722;DHT22;11023;48.274;7.794;2024-01-30T02:30:46;2.60;99.90
21722;DHT22;11023;48.274;7.794;2024-01-30T02:33:14;2.60;99.90
21722;DHT22;11023;48.274;7.794;2024-01-30T02:35:40;2.60;99.90
21722;DHT22;11023;48.274;7.794;2024-01-30T02:38:08;2.60;99.90
21722;DHT22;11023;48.274;7.794;2024-01-30T02:40:33;2.60;99.90
21722;DHT22;11023;48.274;7.794;2024-01-30T02:43:01;2.50;99.90
21722;DHT22;11023;48.274;7.794;2024-01-30T02:45:26;2.50;99.90
21722;DHT22;11023;48.274;7.794;2024-01-30T02:47:52;2.40;99.90
21722;DHT22;11023;48.274;7.794;2024-01-30T02:50:18;2.40;99.90
21722;DHT22;11023;48.274;7.794;2024-01-30T02:52:44;2.40;99.90
21722;DHT22;11023;48.274;7.794;2024-01-30T02:55:10;2.40;99.90
21722;DHT22;11023;48.274;7.794;2024-01-30T02:57:36;2.30;99.90
21722;DHT22;11023;48.274;7.794;2024-01-30T03:00:03;2.40;99.90
21722;DHT22;11023;48.274;7.794;2024-01-30T03:02:30;2.40;99.90
21722;DHT22;11023;48.274;7.794;2024-01-30T03:04:56;2.30;99.90
21722;DHT22;11023;48.274;7.794;2024-01-30T03:07:22;2.30;99.90
21722;DHT22;11023;48.274;7.794;2024-01-30T03:09:48;2.20;99.90
21722;DHT22;11023;48.274;7.794;2024-01-30T03:12:13;2.20;99.90
21722;DHT22;11023;48.274;7.794;2024-01-30T03:14:42;2.10;99.90
21722;DHT22;11023;48.274;7.794;2024-01-30T03:17:09;2.00;99.90
21722;DHT22;11023;48.274;7.794;2024-01-30T03:19:35;2.00;99.90
21722;DHT22;11023;48.274;7.794;2024-01-30T03:22:01;1.90;99.90
21722;DHT22;11023;48.274;7.794;2024-01-30T03:24:26;1.90;99.90
21722;DHT22;11023;48.274;7.794;2024-01-30T03:26:52;1.90;99.90
21722;DHT22;11023;48.274;7.794;2024-01-30T03:29:18;1.80;99.90
21722;DHT22;11023;48.274;7.794;2024-01-30T03:31:44;1.90;99.90
21722;DHT22;11023;48.274;7.794;2024-01-30T03:34:10;1.90;99.90
21722;DHT22;11023;48.274;7.794;2024-01-30T03:36:36;1.90;99.90
21722;DHT22;11023;48.274;7.794;2024-01-30T03:39:02;1.80;99.90
21722;DHT22;11023;48.274;7.794;2024-01-30T03:41:28;1.80;99.90
21722;DHT22;11023;48.274;7.794;2024-01-30T03:43:53;1.80;99.90
21722;DHT22;11023;48.274;7.794;2024-01-30T03:46:19;1.80;99.90
21722;DHT22;11023;48.274;7.794;2024-01-30T03:48:45;1.70;99.90
21722;DHT22;11023;48.274;7.794;2024-01-30T03:51:11;1.70;99.90
21722;DHT22;11023;48.274;7.794;2024-01-30T03:53:43;1.70;99.90
21722;DHT22;11023;48.274;7.794;2024-01-30T03:56:11;1.70;99.90
21722;DHT22;11023;48.274;7.794;2024-01-30T03:58:38;1.70;99.90
21722;DHT22;11023;48.274;7.794;2024-01-30T04:01:04;1.70;99.90
21722;DHT22;11023;48.274;7.794;2024-01-30T04:03:30;1.70;99.90
21722;DHT22;11023;48.274;7.794;2024-01-30T04:05:55;1.60;99.90
21722;DHT22;11023;48.274;7.794;2024-01-30T04:08:21;1.60;99.90
21722;DHT22;11023;48.274;7.794;2024-01-30T04:10:47;1.70;99.90
21722;DHT22;11023;48.274;7.794;2024-01-30T04:13:13;1.60;99.90
21722;DHT22;11023;48.274;7.794;2024-01-30T04:15:39;1.60;99.90
21722;DHT22;11023;48.274;7.794;2024-01-30T04:18:05;1.70;99.90
21722;DHT22;11023;48.274;7.794;2024-01-30T04:20:31;1.70;99.90
21722;DHT22;11023;48.274;7.794;2024-01-30T04:22:57;1.70;99.90
21722;DHT22;11023;48.274;7.794;2024-01-30T04:25:23;1.70;99.90
21722;DHT22;11023;48.274;7.794;2024-01-30T04:27:49;1.70;99.90
21722;DHT22;11023;48.274;7.794;2024-01-30T04:30:15;1.70;99.90
21722;DHT22;11023;48.274;7.794;2024-01-30T04:32:40;1.70;99.90
21722;DHT22;11023;48.274;7.794;2024-01-30T04:35:06;1.80;99.90
21722;DHT22;11023;48.274;7.794;2024-01-30T04:37:32;1.80;99.90
21722;DHT22;11023;48.274;7.794;2024-01-30T04:39:58;1.80;99.90
21722;DHT22;11023;48.274;7.794;2024-01-30T04:42:24;1.80;99.90
21722;DHT22;11023;48.274;7.794;2024-01-30T04:44:50;1.70;99.90
21722;DHT22;11023;48.274;7.794;2024-01-30T04:47:16;1.70;99.90
21722;DHT22;11023;48.274;7.794;2024-01-30T04:49:42;1.70;99.90
21722;DHT22;11023;48.274;7.794;2024-01-30T04:52:09;1.80;99.90
21722;DHT22;11023;48.274;7.794;2024-01-30T04:54:35;1.80;99.90
21722;DHT22;11023;48.274;7.794;2024-01-30T04:57:02;1.80;99.90
21722;DHT22;11023;48.274;7.794;2024-01-30T04:59:27;1.90;99.90
21722;DHT22;11023;48.274;7.794;2024-01-30T05:01:53;2.00;99.90
21722;DHT22;11023;48.274;7.794;2024-01-30T05:04:19;2.00;99.90
21722;DHT22;11023;48.274;7.794;2024-01-30T05:06:46;2.00;99.90
21722;DHT22;11023;48.274;7.794;2024-01-30T05:09:12;2.10;99.90
21722;DHT22;11023;48.274;7.794;2024-01-30T05:11:38;2.20;99.90
21722;DHT22;11023;48.274;7.794;2024-01-30T05:14:05;2.20;99.90
21722;DHT22;11023;48.274;7.794;2024-01-30T05:16:31;2.20;99.90
21722;DHT22;11023;48.274;7.794;2024-01-30T05:18:57;2.30;99.90
21722;DHT22;11023;48.274;7.794;2024-01-30T05:21:24;2.20;99.90
21722;DHT22;11023;48.274;7.794;2024-01-30T05:23:50;2.20;99.90
21722;DHT22;11023;48.274;7.794;2024-01-30T05:26:16;2.20;99.90
21722;DHT22;11023;48.274;7.794;2024-01-30T05:28:42;2.10;99.90
21722;DHT22;11023;48.274;7.794;2024-01-30T05:31:10;2.10;99.90
21722;DHT22;11023;48.274;7.794;2024-01-30T05:33:36;2.10;99.90
21722;DHT22;11023;48.274;7.794;2024-01-30T05:36:02;2.10;99.90
21722;DHT22;11023;48.274;7.794;2024-01-30T05:38:28;2.20;99.90
21722;DHT22;11023;48.274;7.794;2024-01-30T05:40:54;2.10;99.90
21722;DHT22;11023;48.274;7.794;2024-01-30T05:43:20;2.20;99.90
21722;DHT22;11023;48.274;7.794;2024-01-30T05:45:46;2.20;99.90
21722;DHT22;11023;48.274;7.794;2024-01-30T05:48:11;2.20;99.90
21722;DHT22;11023;48.274;7.794;2024-01-30T05:50:37;2.10;99.90
21722;DHT22;11023;48.274;7.794;2024-01-30T05:53:03;2.10;99.90
21722;DHT22;11023;48.274;7.794;2024-01-30T05:55:29;2.10;99.90
21722;DHT22;11023;48.274;7.794;2024-01-30T05:57:56;2.10;99.90
21722;DHT22;11023;48.274;7.794;2024-01-30T06:00:21;2.20;99.90
21722;DHT22;11023;48.274;7.794;2024-01-30T06:02:47;2.20;99.90
21722;DHT22;11023;48.274;7.794;2024-01-30T06:05:14;2.20;99.90
21722;DHT22;11023;48.274;7.794;2024-01-30T06:07:43;2.30;99.90
21722;DHT22;11023;48.274;7.794;2024-01-30T06:10:09;2.30;99.90
21722;DHT22;11023;48.274;7.794;2024-01-30T06:12:37;2.40;99.90
21722;DHT22;11023;48.274;7.794;2024-01-30T06:15:04;2.50;99.90
21722;DHT22;11023;48.274;7.794;2024-01-30T06:17:30;2.60;99.90
21722;DHT22;11023;48.274;7.794;2024-01-30T06:19:55;2.70;99.90
21722;DHT22;11023;48.274;7.794;2024-01-30T06:22:22;2.90;99.90
21722;DHT22;11023;48.274;7.794;2024-01-30T06:24:48;2.90;99.90
21722;DHT22;11023;48.274;7.794;2024-01-30T06:27:14;2.80;99.90
21722;DHT22;11023;48.274;7.794;2024-01-30T06:29:43;2.70;99.90
21722;DHT22;11023;48.274;7.794;2024-01-30T06:32:09;2.60;99.90
21722;DHT22;11023;48.274;7.794;2024-01-30T06:34:35;2.40;99.90
21722;DHT22;11023;48.274;7.794;2024-01-30T06:37:01;2.40;99.90
21722;DHT22;11023;48.274;7.794;2024-01-30T06:39:27;2.40;99.90
21722;DHT22;11023;48.274;7.794;2024-01-30T06:41:52;2.50;99.90
21722;DHT22;11023;48.274;7.794;2024-01-30T06:44:18;2.40;99.90
21722;DHT22;11023;48.274;7.794;2024-01-30T06:46:44;2.50;99.90
21722;DHT22;11023;48.274;7.794;2024-01-30T06:49:10;2.50;99.90
21722;DHT22;11023;48.274;7.794;2024-01-30T06:51:35;2.50;99.90
21722;DHT22;11023;48.274;7.794;2024-01-30T06:54:01;2.40;99.90
21722;DHT22;11023;48.274;7.794;2024-01-30T06:56:27;2.40;99.90
21722;DHT22;11023;48.274;7.794;2024-01-30T06:58:53;2.40;99.90
21722;DHT22;11023;48.274;7.794;2024-01-30T07:01:19;2.30;99.90
21722;DHT22;11023;48.274;7.794;2024-01-30T07:04:00;2.30;99.90
21722;DHT22;11023;48.274;7.794;2024-01-30T07:06:46;2.30;99.90
21722;DHT22;11023;48.274;7.794;2024-01-30T07:12:42;2.30;99.90
21722;DHT22;11023;48.274;7.794;2024-01-30T07:15:43;2.30;99.90
21722;DHT22;11023;48.274;7.794;2024-01-30T07:18:18;2.40;99.90
21722;DHT22;11023;48.274;7.794;2024-01-30T07:20:52;2.40;99.90
21722;DHT22;11023;48.274;7.794;2024-01-30T07:30:49;2.60;99.90
21722;DHT22;11023;48.274;7.794;2024-01-30T08:01:40;4.30;99.90
21722;DHT22;11023;48.274;7.794;2024-01-30T08:04:12;4.40;99.90
21722;DHT22;11023;48.274;7.794;2024-01-30T08:06:41;4.50;99.90
21722;DHT22;11023;48.274;7.794;2024-01-30T08:09:19;4.50;99.90
21722;DHT22;11023;48.274;7.794;2024-01-30T08:12:24;4.60;99.90
21722;DHT22;11023;48.274;7.794;2024-01-30T08:14:57;4.70;99.90
21722;DHT22;11023;48.274;7.794;2024-01-30T08:17:39;4.70;99.90
21722;DHT22;11023;48.274;7.794;2024-01-30T08:20:35;4.70;99.90
21722;DHT22;11023;48.274;7.794;2024-01-30T08:23:22;4.80;99.90
21722;DHT22;11023;48.274;7.794;2024-01-30T08:26:12;4.90;99.90
21722;DHT22;11023;48.274;7.794;2024-01-30T08:29:18;4.90;99.90
21722;DHT22;11023;48.274;7.794;2024-01-30T08:38:28;5.40;99.90
21722;DHT22;11023;48.274;7.794;2024-01-30T08:41:43;5.80;99.90
21722;DHT22;11023;48.274;7.794;2024-01-30T08:50:57;6.70;99.90
21722;DHT22;11023;48.274;7.794;2024-01-30T08:53:42;6.80;99.90
21722;DHT22;11023;48.274;7.794;2024-01-30T09:00:15;6.90;99.90
21722;DHT22;11023;48.274;7.794;2024-01-30T09:05:58;7.10;99.90
21722;DHT22;11023;48.274;7.794;2024-01-30T09:08:53;7.20;99.90
21722;DHT22;11023;48.274;7.794;2024-01-30T09:11:35;7.30;99.90
21722;DHT22;11023;48.274;7.794;2024-01-30T09:21:47;7.90;99.90
21722;DHT22;11023;48.274;7.794;2024-01-30T09:24:49;8.20;99.90
21722;DHT22;11023;48.274;7.794;2024-01-30T09:27:39;8.40;99.90
21722;DHT22;11023;48.274;7.794;2024-01-30T09:30:20;8.50;99.90
21722;DHT22;11023;48.274;7.794;2024-01-30T09:33:12;8.60;99.90
21722;DHT22;11023;48.274;7.794;2024-01-30T09:36:14;8.70;99.90
21722;DHT22;11023;48.274;7.794;2024-01-30T09:39:24;8.80;99.90
21722;DHT22;11023;48.274;7.794;2024-01-30T09:45:31;9.00;99.90
21722;DHT22;11023;48.274;7.794;2024-01-30T09:48:34;9.00;99.90
21722;DHT22;11023;48.274;7.794;2024-01-30T09:54:22;9.00;99.90
21722;DHT22;11023;48.274;7.794;2024-01-30T10:00:30;9.10;99.90
21722;DHT22;11023;48.274;7.794;2024-01-30T10:06:44;9.40;99.90
21722;DHT22;11023;48.274;7.794;2024-01-30T10:10:01;9.50;99.90
21722;DHT22;11023;48.274;7.794;2024-01-30T10:40:05;10.90;99.90
21722;DHT22;11023;48.274;7.794;2024-01-30T10:43:02;11.00;99.90
21722;DHT22;11023;48.274;7.794;2024-01-30T10:45:38;11.20;99.90
21722;DHT22;11023;48.274;7.794;2024-01-30T10:48:09;11.30;99.90
21722;DHT22;11023;48.274;7.794;2024-01-30T10:50:50;11.40;99.90
21722;DHT22;11023;48.274;7.794;2024-01-30T10:53:44;11.50;99.90
21722;DHT22;11023;48.274;7.794;2024-01-30T10:56:23;11.60;99.90
21722;DHT22;11023;48.274;7.794;2024-01-30T11:08:38;12.00;99.90
21722;DHT22;11023;48.274;7.794;2024-01-30T11:11:09;12.10;99.90
21722;DHT22;11023;48.274;7.794;2024-01-30T11:13:48;12.20;99.90
21722;DHT22;11023;48.274;7.794;2024-01-30T11:59:59;12.90;99.90
21722;DHT22;11023;48.274;7.794;2024-01-30T12:03:08;13.00;99.90
21722;DHT22;11023;48.274;7.794;2024-01-30T12:06:09;13.00;99.90
21722;DHT22;11023;48.274;7.794;2024-01-30T12:11:47;13.10;99.90
21722;DHT22;11023;48.274;7.794;2024-01-30T12:14:22;13.10;99.90
21722;DHT22;11023;48.274;7.794;2024-01-30T12:16:59;13.10;99.90
21722;DHT22;11023;48.274;7.794;2024-01-30T12:22:49;13.10;99.90
21722;DHT22;11023;48.274;7.794;2024-01-30T12:25:24;13.10;99.90
21722;DHT22;11023;48.274;7.794;2024-01-30T12:28:16;13.20;99.90
21722;DHT22;11023;48.274;7.794;2024-01-30T12:30:50;13.20;99.90
21722;DHT22;11023;48.274;7.794;2024-01-30T12:33:27;13.20;99.90
21722;DHT22;11023;48.274;7.794;2024-01-30T12:36:10;13.20;99.90
21722;DHT22;11023;48.274;7.794;2024-01-30T12:38:42;13.30;99.90
21722;DHT22;11023;48.274;7.794;2024-01-30T12:41:17;13.40;99.90
21722;DHT22;11023;48.274;7.794;2024-01-30T12:44:00;13.50;99.90
21722;DHT22;11023;48.274;7.794;2024-01-30T12:46:55;13.60;99.90
21722;DHT22;11023;48.274;7.794;2024-01-30T12:49:42;13.60;99.90
21722;DHT22;11023;48.274;7.794;2024-01-30T12:52:53;13.60;99.90
21722;DHT22;11023;48.274;7.794;2024-01-30T12:55:19;13.60;99.90
21722;DHT22;11023;48.274;7.794;2024-01-30T12:57:56;13.60;99.90
21722;DHT22;11023;48.274;7.794;2024-01-30T13:00:48;13.70;99.90
21722;DHT22;11023;48.274;7.794;2024-01-30T13:06:28;13.70;99.90
21722;DHT22;11023;48.274;7.794;2024-01-30T13:08:53;13.70;99.90
21722;DHT22;11023;48.274;7.794;2024-01-30T13:11:19;13.70;99.90
21722;DHT22;11023;48.274;7.794;2024-01-30T13:13:45;13.70;99.90
21722;DHT22;11023;48.274;7.794;2024-01-30T13:16:10;13.60;99.90
21722;DHT22;11023;48.274;7.794;2024-01-30T13:18:36;13.70;99.90
21722;DHT22;11023;48.274;7.794;2024-01-30T13:21:02;13.60;99.90
21722;DHT22;11023;48.274;7.794;2024-01-30T13:23:28;13.60;99.90
21722;DHT22;11023;48.274;7.794;2024-01-30T13:25:54;13.60;99.90
21722;DHT22;11023;48.274;7.794;2024-01-30T13:28:23;13.60;99.90
21722;DHT22;11023;48.274;7.794;2024-01-30T13:30:48;13.60;99.90
21722;DHT22;11023;48.274;7.794;2024-01-30T13:33:14;13.60;99.90
21722;DHT22;11023;48.274;7.794;2024-01-30T13:35:39;13.70;99.90
21722;DHT22;11023;48.274;7.794;2024-01-30T13:38:05;13.70;99.90
21722;DHT22;11023;48.274;7.794;2024-01-30T13:40:31;13.60;99.90
21722;DHT22;11023;48.274;7.794;2024-01-30T13:42:56;13.70;99.90
21722;DHT22;11023;48.274;7.794;2024-01-30T13:45:22;13.70;99.90
21722;DHT22;11023;48.274;7.794;2024-01-30T13:47:48;13.70;99.90
21722;DHT22;11023;48.274;7.794;2024-01-30T13:50:13;13.70;99.90
21722;DHT22;11023;48.274;7.794;2024-01-30T13:52:42;13.70;99.90
21722;DHT22;11023;48.274;7.794;2024-01-30T13:55:11;13.60;99.90
21722;DHT22;11023;48.274;7.794;2024-01-30T13:57:37;13.60;99.90
21722;DHT22;11023;48.274;7.794;2024-01-30T14:00:03;13.60;99.90
21722;DHT22;11023;48.274;7.794;2024-01-30T14:02:32;13.60;99.90
21722;DHT22;11023;48.274;7.794;2024-01-30T14:04:57;13.60;99.90
21722;DHT22;11023;48.274;7.794;2024-01-30T14:07:23;13.60;99.90
21722;DHT22;11023;48.274;7.794;2024-01-30T14:09:49;13.50;99.90
21722;DHT22;11023;48.274;7.794;2024-01-30T14:12:15;13.50;99.90
21722;DHT22;11023;48.274;7.794;2024-01-30T14:14:40;13.50;99.90
21722;DHT22;11023;48.274;7.794;2024-01-30T14:17:06;13.40;99.90
21722;DHT22;11023;48.274;7.794;2024-01-30T14:19:35;13.40;99.90
21722;DHT22;11023;48.274;7.794;2024-01-30T14:22:01;13.40;99.90
21722;DHT22;11023;48.274;7.794;2024-01-30T14:24:27;13.30;99.90
21722;DHT22;11023;48.274;7.794;2024-01-30T14:26:53;13.30;99.90
21722;DHT22;11023;48.274;7.794;2024-01-30T14:29:19;13.30;99.90
21722;DHT22;11023;48.274;7.794;2024-01-30T14:31:44;13.20;99.90
21722;DHT22;11023;48.274;7.794;2024-01-30T14:34:10;13.20;99.90
21722;DHT22;11023;48.274;7.794;2024-01-30T14:36:39;13.20;99.90
21722;DHT22;11023;48.274;7.794;2024-01-30T14:39:05;13.20;99.90
21722;DHT22;11023;48.274;7.794;2024-01-30T14:41:32;13.20;99.90
21722;DHT22;11023;48.274;7.794;2024-01-30T14:43:58;13.10;99.90
21722;DHT22;11023;48.274;7.794;2024-01-30T14:46:24;13.10;99.90
21722;DHT22;11023;48.274;7.794;2024-01-30T14:48:52;13.00;99.90
21722;DHT22;11023;48.274;7.794;2024-01-30T14:51:18;13.00;99.90
21722;DHT22;11023;48.274;7.794;2024-01-30T14:53:47;12.90;99.90
21722;DHT22;11023;48.274;7.794;2024-01-30T14:56:12;12.90;99.90
21722;DHT22;11023;48.274;7.794;2024-01-30T14:58:38;12.90;99.90
21722;DHT22;11023;48.274;7.794;2024-01-30T15:01:04;12.90;99.90
21722;DHT22;11023;48.274;7.794;2024-01-30T15:03:30;12.90;99.90
21722;DHT22;11023;48.274;7.794;2024-01-30T15:05:56;12.90;99.90
21722;DHT22;11023;48.274;7.794;2024-01-30T15:08:22;12.90;99.90
21722;DHT22;11023;48.274;7.794;2024-01-30T15:10:48;12.80;99.90
21722;DHT22;11023;48.274;7.794;2024-01-30T15:13:16;12.80;99.90
21722;DHT22;11023;48.274;7.794;2024-01-30T15:15:41;12.80;99.90
21722;DHT22;11023;48.274;7.794;2024-01-30T15:18:08;12.70;99.90
21722;DHT22;11023;48.274;7.794;2024-01-30T15:20:36;12.70;99.90
21722;DHT22;11023;48.274;7.794;2024-01-30T15:23:02;12.60;99.90
21722;DHT22;11023;48.274;7.794;2024-01-30T15:25:28;12.60;99.90
21722;DHT22;11023;48.274;7.794;2024-01-30T15:27:54;12.60;99.90
21722;DHT22;11023;48.274;7.794;2024-01-30T15:30:20;12.60;99.90
21722;DHT22;11023;48.274;7.794;2024-01-30T15:32:46;12.60;99.90
21722;DHT22;11023;48.274;7.794;2024-01-30T15:35:12;12.60;99.90
21722;DHT22;11023;48.274;7.794;2024-01-30T15:37:38;12.60;99.90
21722;DHT22;11023;48.274;7.794;2024-01-30T15:40:04;12.60;99.90
21722;DHT22;11023;48.274;7.794;2024-01-30T15:42:32;12.60;99.90
21722;DHT22;11023;48.274;7.794;2024-01-30T15:44:58;12.50;99.90
21722;DHT22;11023;48.274;7.794;2024-01-30T15:47:24;12.50;99.90
21722;DHT22;11023;48.274;7.794;2024-01-30T15:49:50;12.50;99.90
21722;DHT22;11023;48.274;7.794;2024-01-30T15:52:16;12.50;99.90
21722;DHT22;11023;48.274;7.794;2024-01-30T15:54:46;12.40;99.90
21722;DHT22;11023;48.274;7.794;2024-01-30T15:57:12;12.40;99.90
21722;DHT22;11023;48.274;7.794;2024-01-30T15:59:38;12.30;99.90
21722;DHT22;11023;48.274;7.794;2024-01-30T16:02:04;12.20;99.90
21722;DHT22;11023;48.274;7.794;2024-01-30T16:04:30;12.10;99.90
21722;DHT22;11023;48.274;7.794;2024-01-30T16:06:56;12.10;99.90
21722;DHT22;11023;48.274;7.794;2024-01-30T16:09:25;12.00;99.90
21722;DHT22;11023;48.274;7.794;2024-01-30T16:11:50;11.90;99.90
21722;DHT22;11023;48.274;7.794;2024-01-30T16:14:16;11.90;99.90
21722;DHT22;11023;48.274;7.794;2024-01-30T16:16:42;11.80;99.90
21722;DHT22;11023;48.274;7.794;2024-01-30T16:19:07;11.80;99.90
21722;DHT22;11023;48.274;7.794;2024-01-30T16:21:33;11.70;99.90
21722;DHT22;11023;48.274;7.794;2024-01-30T16:23:59;11.70;99.90
21722;DHT22;11023;48.274;7.794;2024-01-30T16:26:25;11.60;99.90
21722;DHT22;11023;48.274;7.794;2024-01-30T16:28:51;11.60;99.90
21722;DHT22;11023;48.274;7.794;2024-01-30T16:31:17;11.60;99.90
21722;DHT22;11023;48.274;7.794;2024-01-30T16:33:47;11.60;99.90
21722;DHT22;11023;48.274;7.794;2024-01-30T16:36:14;11.50;99.90
21722;DHT22;11023;48.274;7.794;2024-01-30T16:38:39;11.50;99.90
21722;DHT22;11023;48.274;7.794;2024-01-30T16:41:05;11.50;99.90
21722;DHT22;11023;48.274;7.794;2024-01-30T16:43:31;11.40;99.90
21722;DHT22;11023;48.274;7.794;2024-01-30T16:45:57;11.30;99.90
21722;DHT22;11023;48.274;7.794;2024-01-30T16:48:24;11.30;99.90
21722;DHT22;11023;48.274;7.794;2024-01-30T16:50:49;11.30;99.90
21722;DHT22;11023;48.274;7.794;2024-01-30T16:53:15;11.20;99.90
21722;DHT22;11023;48.274;7.794;2024-01-30T16:55:41;11.20;99.90
21722;DHT22;11023;48.274;7.794;2024-01-30T16:58:07;11.10;99.90
21722;DHT22;11023;48.274;7.794;2024-01-30T17:00:37;11.10;99.90
21722;DHT22;11023;48.274;7.794;2024-01-30T17:03:03;11.10;99.90
21722;DHT22;11023;48.274;7.794;2024-01-30T17:05:29;11.00;99.90
21722;DHT22;11023;48.274;7.794;2024-01-30T17:07:55;11.00;99.90
21722;DHT22;11023;48.274;7.794;2024-01-30T17:10:23;11.00;99.90
21722;DHT22;11023;48.274;7.794;2024-01-30T17:12:49;11.00;99.90
21722;DHT22;11023;48.274;7.794;2024-01-30T17:15:15;11.00;99.90
21722;DHT22;11023;48.274;7.794;2024-01-30T17:17:41;11.00;99.90
21722;DHT22;11023;48.274;7.794;2024-01-30T17:20:07;11.00;99.90
21722;DHT22;11023;48.274;7.794;2024-01-30T17:22:32;11.00;99.90
21722;DHT22;11023;48.274;7.794;2024-01-30T17:24:58;11.00;99.90
21722;DHT22;11023;48.274;7.794;2024-01-30T17:27:24;11.00;99.90
21722;DHT22;11023;48.274;7.794;2024-01-30T17:29:49;11.00;99.90
21722;DHT22;11023;48.274;7.794;2024-01-30T17:32:15;11.00;99.90
21722;DHT22;11023;48.274;7.794;2024-01-30T17:34:41;11.00;99.90
21722;DHT22;11023;48.274;7.794;2024-01-30T17:37:07;10.90;99.90
21722;DHT22;11023;48.274;7.794;2024-01-30T17:39:33;10.90;99.90
21722;DHT22;11023;48.274;7.794;2024-01-30T17:41:58;10.90;99.90
21722;DHT22;11023;48.274;7.794;2024-01-30T17:44:24;10.80;99.90
21722;DHT22;11023;48.274;7.794;2024-01-30T17:46:51;10.90;99.90
21722;DHT22;11023;48.274;7.794;2024-01-30T17:49:16;10.80;99.90
21722;DHT22;11023;48.274;7.794;2024-01-30T17:51:42;10.80;99.90
21722;DHT22;11023;48.274;7.794;2024-01-30T17:54:08;10.80;99.90
21722;DHT22;11023;48.274;7.794;2024-01-30T17:56:34;10.90;99.90
21722;DHT22;11023;48.274;7.794;2024-01-30T17:58:59;10.80;99.90
21722;DHT22;11023;48.274;7.794;2024-01-30T18:01:25;10.80;99.90
21722;DHT22;11023;48.274;7.794;2024-01-30T18:03:51;10.90;99.90
21722;DHT22;11023;48.274;7.794;2024-01-30T18:06:17;10.90;99.90
21722;DHT22;11023;48.274;7.794;2024-01-30T18:08:43;10.90;99.90
21722;DHT22;11023;48.274;7.794;2024-01-30T18:11:09;11.00;99.90
21722;DHT22;11023;48.274;7.794;2024-01-30T18:13:35;11.00;99.90
21722;DHT22;11023;48.274;7.794;2024-01-30T18:16:01;11.10;99.90
21722;DHT22;11023;48.274;7.794;2024-01-30T18:18:26;11.10;99.90
21722;DHT22;11023;48.274;7.794;2024-01-30T18:20:52;11.20;99.90
21722;DHT22;11023;48.274;7.794;2024-01-30T18:23:18;11.20;99.90
21722;DHT22;11023;48.274;7.794;2024-01-30T18:25:46;11.10;99.90
21722;DHT22;11023;48.274;7.794;2024-01-30T18:28:12;11.10;99.90
21722;DHT22;11023;48.274;7.794;2024-01-30T18:30:37;11.00;99.90
21722;DHT22;11023;48.274;7.794;2024-01-30T18:33:03;10.90;99.90
21722;DHT22;11023;48.274;7.794;2024-01-30T18:35:30;10.80;99.90
21722;DHT22;11023;48.274;7.794;2024-01-30T18:37:56;10.70;99.90
21722;DHT22;11023;48.274;7.794;2024-01-30T18:40:22;10.60;99.90
21722;DHT22;11023;48.274;7.794;2024-01-30T18:42:47;10.60;99.90
21722;DHT22;11023;48.274;7.794;2024-01-30T18:45:13;10.50;99.90